Houghton, MI

8:46 AM EDT on August 21, 2014 (GMT -0400)
Hancock: Sylvan Estates | Change Station
CLOSE
Current Station
Personal Weather Station
Location: Hancock, MI
Elevation: 917 ft
Nearby Weather Stations
Active Advisory: Special Statement

Elev 917 ft 47.14 °N, 88.60 °W | Updated 6 minutes ago

Fog
Fog
61.4 °F
Feels Like 61.4 °F
N
0.0
Wind Variable Wind from East
Gusts 2.0 mph

Today
High -- | Low -- °F
--% Chance of Precip.
Yesterday
High -- | Low -- °F
Precip. -- in
6:59 AM 8:54 PM
Waning Crescent, 14% visible
Pressure 29.98 in
Visibility 0.2 miles
Clouds
Dew Point 61 °F
Humidity 99%
Rainfall 0.00 in
Snow Depth Not available.
UV Not available.
Pollen 4.10 out of 12
Air Quality Not available.
Flu Activity Not available.
METAR KCMX 211153Z AUTO 10004KT M1/4SM FG VV001 16/15 A2998 RMK AO2 SLP151 T01560150 10156 20156 53005

More Conditions Fewer Conditions

Pressure 29.98 in
Visibility 0.2 miles
Clouds
Dew Point 61 °F
Humidity 99%
Rainfall 0.00 in
Snow Depth Not available.
UV Not available.
Pollen 4.10 out of 12
Air Quality Not available.
Flu Activity Not available.
METAR KCMX 211153Z AUTO 10004KT M1/4SM FG VV001 16/15 A2998 RMK AO2 SLP151 T01560150 10156 20156 53005

More Conditions Fewer Conditions

10-Day Weather Forecast

Almanac

Astronomy

Aug. 21, 2014 Rise Set
Actual Time 6:59 AM EDT 8:54 PM EDT
Civil Twilight 6:26 AM EDT 9:27 PM EDT
Nautical Twilight 5:45 AM EDT 10:07 PM EDT
Astronomical Twilight 5:01 AM EDT 10:51 PM EDT
Moon 3:22 AM EDT 6:28 PM EDT
Length of Visible Light 15h 01m
Length of Day
13h 55m
Tomorrow will be 3m 8s shorter.
Waning Crescent, 14% of the Moon is Illuminated
Today
Waning Crescent
Aug 25
New
Sep 2
First Quarter
Sep 8
Full
Sep 15
Last Quarter

Today's Extremes

State Highs State Lows

Community

WunderPhotos

Upload Photos

1,745,895 photos uploaded!

WunderBlogs® & News

By Dr. Jeff Masters
Director of Meteorology, Weather Underground
By Kari Strenfel
Meteorologist, Weather Underground
By Christopher C. Burt
Weather Historian, Weather Underground
August 21, 2014
August 21, 2014
August 21, 2014

Nearby

Snow Depth

Station Depth Elevation
No new snow has been reported.

Earthquake Activity

City Distance Mag. Time & Date
No recent earthquake activity has been reported nearby.
Minimum magnitude displayed is 2.5.

Coastal Water Temperatures

Place Temperature
No Stations Reporting

Nearby Weather Stations